Time;durP1;ratioP1;P1;durP2;ratioP2;P2;SDS_P1;SDS_P2;PMS_P1;PMS_P2;Temp;Humidity;BMP_temperature;BMP_pressure;BME280_temperature;BME280_humidity;BME280_pressure;Samples;Min_cycle;Max_cycle;Signal;HPM_P1;HPM_P2
2022/09/13 00:01:14;;;;;;;4.00;2.50;;;18.10;65.10;;;20.83;45.49;97220.88;5026613;28;20041;-56
2022/09/13 00:03:42;;;;;;;3.50;1.80;;;18.10;65.00;;;20.80;45.53;97222.19;5026964;28;20336;-54
2022/09/13 00:06:14;;;;;;;3.42;2.00;;;18.20;65.00;;;20.85;45.42;97213.34;5025137;28;20045;-55
2022/09/13 00:08:42;;;;;;;4.45;2.03;;;18.20;65.10;;;20.83;45.68;97208.16;5025702;28;20068;-55
2022/09/13 00:11:23;;;;;;;4.00;2.30;;;18.20;65.60;;;20.79;45.92;97208.88;5026171;28;20287;-56
2022/09/13 00:13:52;;;;;;;3.00;2.03;;;18.10;66.90;;;20.77;45.68;97200.19;5026663;28;20348;-55
2022/09/13 00:16:25;;;;;;;4.10;2.75;;;18.10;66.60;;;20.77;46.13;97197.50;5025721;28;20049;-54
2022/09/13 00:18:55;;;;;;;3.97;2.50;;;18.00;66.90;;;20.75;46.05;97196.91;5025765;28;20037;-54
2022/09/13 00:21:23;;;;;;;3.30;2.65;;;18.00;67.00;;;20.74;46.03;97206.88;5022531;28;20052;-56
2022/09/13 00:23:53;;;;;;;5.50;2.08;;;18.00;67.10;;;20.71;46.29;97190.31;5025703;28;20078;-55
2022/09/13 00:26:25;;;;;;;2.63;2.10;;;18.00;67.30;;;20.70;46.30;97196.78;5024769;28;20076;-52
2022/09/13 00:28:57;;;;;;;2.70;2.10;;;18.00;67.10;;;20.71;46.20;97201.97;5030503;28;20053;-53
2022/09/13 00:31:27;;;;;;;2.38;1.90;;;18.00;66.60;;;20.65;46.36;97208.31;5029399;28;20054;-56
2022/09/13 00:33:58;;;;;;;4.53;2.75;;;18.00;66.70;;;20.68;46.38;97205.13;5029276;28;20053;-56
2022/09/13 00:36:27;;;;;;;2.92;2.30;;;18.00;66.80;;;20.64;46.51;97196.66;5030449;28;20729;-55
2022/09/13 00:38:55;;;;;;;2.60;1.90;;;18.00;66.80;;;20.65;46.38;97187.50;5030549;28;20050;-55
2022/09/13 00:41:23;;;;;;;2.45;2.25;;;18.00;66.50;;;20.65;46.45;97187.50;5028685;28;20041;-53
2022/09/13 00:43:55;;;;;;;2.65;2.20;;;18.10;66.50;;;20.68;46.53;97182.69;5028834;28;20049;-55
2022/09/13 00:46:46;;;;;;;4.43;2.40;;;18.00;66.80;;;20.71;46.13;97174.91;5030036;28;20056;-56
2022/09/13 00:49:30;;;;;;;2.75;2.17;;;18.00;67.40;;;20.71;46.05;97168.69;5029367;28;20052;-54
2022/09/13 00:52:04;;;;;;;3.47;2.13;;;18.00;67.70;;;20.70;46.24;97165.13;5030144;28;20038;-55
2022/09/13 00:54:41;;;;;;;2.95;2.30;;;17.90;67.70;;;20.67;46.22;97170.22;5028852;28;20271;-53
2022/09/13 00:57:12;;;;;;;3.67;2.33;;;17.90;68.00;;;20.66;46.37;97163.97;5030339;28;20063;-53
2022/09/13 00:59:47;;;;;;;3.53;2.35;;;17.90;67.70;;;20.67;46.24;97162.94;5028065;28;20068;-55
2022/09/13 01:02:15;;;;;;;3.67;2.80;;;17.90;67.60;;;20.66;46.45;97161.28;5028950;28;20053;-55
2022/09/13 01:04:43;;;;;;;3.15;2.17;;;17.90;67.40;;;20.64;46.37;97160.69;5028483;28;20041;-55
2022/09/13 01:07:15;;;;;;;3.03;2.28;;;17.90;67.50;;;20.63;46.80;97162.56;5028247;28;20041;-53
2022/09/13 01:09:47;;;;;;;2.50;2.10;;;17.90;68.10;;;20.63;46.74;97167.16;5028491;28;20361;-55
2022/09/13 01:12:48;;;;;;;4.43;2.25;;;17.90;68.80;;;20.63;46.54;97159.06;5030019;28;20064;-56
2022/09/13 01:15:16;;;;;;;3.17;2.42;;;17.90;68.70;;;20.65;46.64;97156.94;5029784;28;20080;-55
2022/09/13 01:17:44;;;;;;;2.78;2.17;;;17.90;67.90;;;20.59;46.60;97163.28;5031192;28;20045;-58
2022/09/13 01:20:13;;;;;;;2.40;2.10;;;17.80;68.40;;;20.57;46.74;97168.06;5028707;28;20045;-55
2022/09/13 01:23:26;;;;;;;2.55;2.00;;;17.80;68.50;;;20.58;46.54;97170.53;5028403;28;20351;-57
2022/09/13 01:26:18;;;;;;;6.28;2.40;;;17.80;68.70;;;20.57;46.81;97170.75;5028982;28;20049;-57
2022/09/13 01:29:29;;;;;;;2.45;2.25;;;17.70;68.60;;;20.54;46.73;97172.06;5029786;28;20056;-56
2022/09/13 01:32:23;;;;;;;3.65;2.40;;;17.80;68.80;;;20.51;46.54;97169.00;5028909;28;20049;-55
2022/09/13 01:34:54;;;;;;;2.55;2.30;;;17.70;68.90;;;20.49;46.84;97171.13;5029432;28;20049;-56
2022/09/13 01:38:12;;;;;;;3.25;2.60;;;17.70;68.60;;;20.43;47.00;97173.75;5027955;28;20058;-52
2022/09/13 01:41:18;;;;;;;5.43;1.90;;;17.70;69.20;;;20.44;46.86;97164.56;5026640;28;20053;-53
2022/09/13 01:44:20;;;;;;;3.28;2.10;;;17.60;68.90;;;20.42;46.68;97168.56;5028966;28;20049;-55
2022/09/13 01:47:28;;;;;;;2.33;2.10;;;17.60;69.60;;;20.35;46.92;97167.84;5028331;28;20196;-55
2022/09/13 01:50:14;;;;;;;5.30;2.50;;;17.50;70.20;;;20.26;47.23;97172.81;5027861;28;20053;-58
2022/09/13 01:53:11;;;;;;;3.03;2.50;;;17.30;70.40;;;20.18;47.13;97173.97;5028337;28;20047;-56
2022/09/13 01:55:43;;;;;;;7.18;2.35;;;17.30;71.10;;;20.21;47.14;97170.78;5026795;28;20362;-57
2022/09/13 01:58:30;;;;;;;2.80;1.80;;;17.40;70.40;;;20.21;47.45;97168.06;5029174;28;20061;-52
2022/09/13 02:01:15;;;;;;;3.13;2.30;;;17.40;70.00;;;20.23;47.46;97174.06;5026936;28;20335;-55
2022/09/13 02:04:12;;;;;;;3.70;2.35;;;17.40;70.10;;;20.26;47.10;97170.09;5009755;28;20057;-55
2022/09/13 02:06:56;;;;;;;3.03;2.35;;;17.40;70.00;;;20.26;47.26;97175.50;5012180;28;20049;-55
2022/09/13 02:09:29;;;;;;;4.68;2.33;;;17.40;70.30;;;20.24;47.26;97172.22;5025689;28;20061;-55
2022/09/13 02:12:12;;;;;;;2.83;2.37;;;17.40;69.80;;;20.26;47.23;97179.03;5025319;28;20060;-56
2022/09/13 02:14:47;;;;;;;2.92;2.30;;;17.40;70.10;;;20.27;47.35;97185.25;5025635;28;20869;-56
2022/09/13 02:17:22;;;;;;;2.78;2.50;;;17.40;70.20;;;20.27;47.15;97185.25;5026693;28;20053;-55
2022/09/13 02:20:08;;;;;;;4.95;2.50;;;17.40;70.10;;;20.24;47.27;97186.53;5027462;28;20366;-50
2022/09/13 02:22:50;;;;;;;2.33;1.98;;;17.40;70.30;;;20.25;47.11;97180.06;5011512;28;20049;-54
2022/09/13 02:25:21;;;;;;;2.92;2.30;;;17.50;69.70;;;20.26;47.11;97180.91;5027684;28;20453;-55
2022/09/13 02:27:57;;;;;;;4.18;2.42;;;17.50;69.40;;;20.29;47.31;97175.03;5027579;28;20228;-53
2022/09/13 02:30:28;;;;;;;2.75;2.45;;;17.60;69.00;;;20.33;47.04;97175.38;5025941;28;20575;-56
2022/09/13 02:33:13;;;;;;;3.58;2.25;;;17.60;68.60;;;20.35;47.06;97181.38;5026291;28;20072;-56
2022/09/13 02:36:03;;;;;;;2.83;2.53;;;17.60;68.40;;;20.39;46.67;97177.94;5026735;28;20064;-55
2022/09/13 02:38:44;;;;;;;2.65;2.22;;;17.60;68.20;;;20.38;46.61;97181.72;5026787;28;20059;-54
2022/09/13 02:41:27;;;;;;;5.03;3.17;;;17.70;68.00;;;20.42;46.64;97182.09;5028535;28;20051;-57
2022/09/13 02:44:10;;;;;;;2.88;2.20;;;17.70;67.70;;;20.45;46.43;97178.88;5025751;28;20064;-55
2022/09/13 02:46:47;;;;;;;2.33;2.08;;;17.70;67.50;;;20.43;46.59;97184.56;5027073;28;20252;-56
2022/09/13 02:49:32;;;;;;;3.10;2.30;;;17.70;67.20;;;20.43;46.51;97179.16;5027041;28;20080;-55
2022/09/13 02:52:16;;;;;;;4.63;2.47;;;17.70;67.20;;;20.47;46.37;97176.78;5026307;28;20065;-55
2022/09/13 02:55:13;;;;;;;3.42;2.78;;;17.70;67.00;;;20.49;46.08;97177.38;5027071;28;20050;-53
2022/09/13 02:58:15;;;;;;;3.88;2.08;;;17.80;66.80;;;20.44;46.21;97166.44;5026611;28;20068;-56
2022/09/13 03:00:45;;;;;;;3.05;2.47;;;17.70;66.40;;;20.44;45.92;97169.16;5025199;28;20053;-55
2022/09/13 03:03:16;;;;;;;2.70;2.20;;;17.70;66.50;;;20.42;46.00;97163.97;5026065;28;20053;-55
2022/09/13 03:05:43;;;;;;;2.83;2.45;;;17.70;66.50;;;20.45;46.02;97173.47;5025958;28;20049;-55
2022/09/13 03:08:14;;;;;;;2.58;2.22;;;17.70;66.20;;;20.48;46.28;97161.38;5026297;28;20069;-55
2022/09/13 03:11:08;;;;;;;3.10;2.30;;;17.70;66.50;;;20.49;45.94;97163.03;5025596;28;20064;-54
2022/09/13 03:13:53;;;;;;;6.07;2.53;;;17.70;66.90;;;20.48;46.27;97156.81;5024809;28;20049;-53
2022/09/13 03:16:47;;;;;;;3.08;2.38;;;17.60;67.10;;;20.39;46.26;97152.81;5026702;28;20057;-55
2022/09/13 03:20:08;;;;;;;3.13;2.10;;;17.50;68.00;;;20.36;46.25;97148.69;5025063;28;20059;-56
2022/09/13 03:23:09;;;;;;;2.42;2.00;;;17.50;68.20;;;20.32;46.13;97144.81;5020686;28;20493;-55
2022/09/13 03:25:45;;;;;;;3.03;2.30;;;17.50;68.10;;;20.24;46.65;97151.41;5026723;28;20248;-55
2022/09/13 03:28:36;;;;;;;2.70;2.20;;;17.40;68.50;;;20.16;46.49;97159.88;5025819;28;20057;-54
2022/09/13 03:31:34;;;;;;;2.83;2.20;;;17.20;68.90;;;20.11;46.60;97172.44;5027278;28;20063;-56
2022/09/13 03:34:43;;;;;;;3.13;2.30;;;17.10;69.30;;;20.02;46.53;97180.88;5025959;28;20051;-55
2022/09/13 03:37:55;;;;;;;2.90;2.53;;;17.00;69.70;;;19.91;46.92;97178.16;5026397;28;20061;-53
2022/09/13 03:40:32;;;;;;;3.63;2.53;;;16.90;71.10;;;19.84;47.10;97167.47;5025391;28;20071;-55
2022/09/13 03:43:15;;;;;;;4.00;3.08;;;16.70;71.80;;;19.78;47.56;97161.09;5026276;28;20060;-56
2022/09/13 03:45:58;;;;;;;5.93;2.55;;;16.80;72.20;;;19.78;47.39;97163.81;5025345;28;20048;-55
2022/09/13 03:48:28;;;;;;;4.85;2.50;;;16.70;72.30;;;19.74;47.50;97154.53;5024392;28;20239;-56
2022/09/13 03:50:56;;;;;;;3.85;3.08;;;16.70;72.00;;;19.72;47.91;97159.34;5026621;28;20049;-52
2022/09/13 03:53:29;;;;;;;3.55;2.50;;;16.70;71.80;;;19.68;47.87;97153.53;5024086;28;20057;-53
2022/09/13 03:55:56;;;;;;;4.00;2.55;;;16.70;72.10;;;19.67;47.81;97154.56;5027360;28;20037;-53
2022/09/13 03:58:25;;;;;;;5.97;3.00;;;16.70;72.10;;;19.64;47.92;97148.84;5026755;28;20649;-56
2022/09/13 04:00:53;;;;;;;5.32;3.30;;;16.60;72.30;;;19.62;48.02;97140.16;5027731;28;20050;-54
2022/09/13 04:03:21;;;;;;;8.82;2.90;;;16.60;72.60;;;19.57;48.03;97140.00;5030173;28;20548;-53
2022/09/13 04:05:49;;;;;;;2.65;2.33;;;16.60;72.90;;;19.53;48.14;97150.44;5028909;28;20049;-55
2022/09/13 04:08:17;;;;;;;5.07;3.40;;;16.50;73.10;;;19.50;48.31;97133.88;5029251;28;20049;-54
2022/09/13 04:10:48;;;;;;;4.10;3.30;;;16.50;73.20;;;19.46;48.31;97134.34;5029747;28;20053;-55
2022/09/13 04:13:16;;;;;;;5.57;2.88;;;16.40;73.40;;;19.45;48.55;97134.59;5028997;28;20064;-55
2022/09/13 04:15:44;;;;;;;4.60;2.78;;;16.50;74.00;;;19.45;48.56;97138.09;5030658;28;20056;-55
2022/09/13 04:18:12;;;;;;;3.78;2.80;;;16.50;74.10;;;19.46;48.51;97144.31;5011864;28;20059;-58
2022/09/13 04:20:40;;;;;;;4.30;2.85;;;16.50;75.00;;;19.45;48.45;97154.28;5029304;28;20049;-53
2022/09/13 04:23:07;;;;;;;4.22;2.83;;;16.40;74.00;;;19.43;48.56;97164.50;5032377;28;20049;-54
2022/09/13 04:25:39;;;;;;;2.90;2.45;;;16.40;74.00;;;19.42;48.53;97173.63;5029910;28;20055;-57
2022/09/13 04:28:08;;;;;;;5.40;3.00;;;16.40;75.30;;;19.39;48.73;97170.59;5030068;28;20069;-54
2022/09/13 04:30:35;;;;;;;4.15;2.63;;;16.30;74.90;;;19.37;48.83;97170.81;5031016;28;20045;-57
2022/09/13 04:33:09;;;;;;;4.43;3.13;;;16.30;75.30;;;19.37;48.95;97175.41;5028250;28;20365;-55
2022/09/13 04:35:38;;;;;;;4.78;3.08;;;16.30;75.80;;;19.34;48.95;97171.25;5028774;28;20046;-57
2022/09/13 04:38:07;;;;;;;4.30;2.85;;;16.30;75.90;;;19.31;49.15;97170.91;5029402;28;20111;-55
2022/09/13 04:40:36;;;;;;;3.22;2.63;;;16.20;76.20;;;19.30;49.26;97169.25;5029057;28;20053;-55
2022/09/13 04:43:03;;;;;;;4.65;3.38;;;16.20;76.40;;;19.32;49.29;97165.28;5028381;28;20048;-54
2022/09/13 04:45:31;;;;;;;4.70;3.00;;;16.30;76.50;;;19.32;49.40;97169.84;5029751;28;20050;-55
2022/09/13 04:47:59;;;;;;;3.40;2.50;;;16.30;76.60;;;19.32;49.23;97167.16;5029958;28;20180;-50
2022/09/13 04:50:27;;;;;;;5.07;2.83;;;16.30;77.10;;;19.33;49.07;97175.03;5029281;28;20057;-56
2022/09/13 04:52:55;;;;;;;3.20;2.42;;;16.30;75.90;;;19.35;49.24;97186.41;5029382;28;20045;-54
2022/09/13 04:55:24;;;;;;;4.55;2.45;;;16.40;75.60;;;19.35;49.15;97194.50;5027746;28;20068;-53
2022/09/13 04:57:54;;;;;;;3.80;2.60;;;16.40;75.60;;;19.33;49.31;97180.44;5029829;28;20539;-54
2022/09/13 05:00:24;;;;;;;8.02;3.03;;;16.40;75.80;;;19.35;49.34;97190.97;5028835;28;20358;-55
2022/09/13 05:02:56;;;;;;;5.38;2.60;;;16.40;75.80;;;19.37;49.10;97187.00;5029541;28;20368;-55
2022/09/13 05:05:24;;;;;;;6.85;2.33;;;16.40;75.80;;;19.39;49.11;97184.09;5027670;28;20370;-53
2022/09/13 05:07:52;;;;;;;5.30;2.35;;;16.40;75.30;;;19.37;49.29;97184.31;5030542;28;20053;-51
2022/09/13 05:10:20;;;;;;;6.28;2.92;;;16.40;75.40;;;19.39;49.17;97192.19;5028987;28;20061;-51
2022/09/13 05:12:48;;;;;;;2.95;2.60;;;16.50;75.30;;;19.37;49.19;97195.09;5026882;28;20075;-54
2022/09/13 05:15:16;;;;;;;4.00;3.47;;;16.40;75.30;;;19.38;49.51;97196.75;5029039;28;20043;-52
2022/09/13 05:17:43;;;;;;;4.47;3.03;;;16.50;75.40;;;19.39;49.21;97194.88;5028374;28;20274;-53
2022/09/13 05:20:11;;;;;;;4.32;3.35;;;16.50;75.50;;;19.37;49.31;97191.59;5029760;28;20160;-55
2022/09/13 05:22:39;;;;;;;13.38;3.72;;;16.40;75.60;;;19.37;49.37;97197.00;5029153;28;20057;-50
2022/09/13 05:25:07;;;;;;;6.10;2.95;;;16.40;76.00;;;19.36;49.52;97196.16;5029029;28;20295;-53
2022/09/13 05:27:35;;;;;;;3.67;3.38;;;16.40;75.90;;;19.36;49.48;97204.25;5029911;28;20053;-54
2022/09/13 05:30:03;;;;;;;5.20;3.28;;;16.40;76.10;;;19.34;49.45;97211.75;5029073;28;20215;-52
2022/09/13 05:32:31;;;;;;;4.72;2.63;;;16.40;76.30;;;19.34;49.25;97214.44;5028229;28;20067;-54
2022/09/13 05:34:59;;;;;;;3.58;2.83;;;16.40;75.90;;;19.34;49.34;97211.75;5028851;28;20045;-55
2022/09/13 05:37:27;;;;;;;5.13;3.17;;;16.40;75.80;;;19.36;49.59;97208.81;5029155;28;20049;-52
2022/09/13 05:39:55;;;;;;;2.90;2.60;;;16.40;76.10;;;19.35;49.39;97217.97;5027328;28;20075;-56
2022/09/13 05:42:39;;;;;;;5.13;2.53;;;16.40;76.20;;;19.39;49.42;97216.47;5027508;28;20236;-53
2022/09/13 05:45:08;;;;;;;4.78;2.60;;;16.40;76.10;;;19.41;49.36;97217.88;5027897;28;20060;-57
2022/09/13 05:47:36;;;;;;;10.15;3.55;;;16.40;76.00;;;19.43;49.46;97220.38;5028738;28;20055;-54
2022/09/13 05:50:04;;;;;;;3.30;2.33;;;16.40;75.90;;;19.44;49.26;97206.66;5028432;28;20059;-54
2022/09/13 05:52:38;;;;;;;4.13;2.30;;;16.50;75.90;;;19.51;49.20;97194.94;5029070;28;20049;-54
2022/09/13 05:55:06;;;;;;;4.05;2.88;;;16.60;75.60;;;19.57;49.18;97196.72;5027474;28;20047;-55
2022/09/13 05:57:36;;;;;;;3.35;2.47;;;16.60;75.20;;;19.63;49.18;97190.38;5028786;28;20537;-52
2022/09/13 06:00:04;;;;;;;3.15;2.63;;;16.70;75.10;;;19.68;48.90;97199.44;5027221;28;20051;-56
2022/09/13 06:02:40;;;;;;;4.13;2.53;;;16.80;74.60;;;19.73;49.23;97206.88;5031397;28;20045;-53
2022/09/13 06:05:09;;;;;;;3.60;2.50;;;16.80;74.40;;;19.72;49.04;97216.03;5028189;28;20049;-54
2022/09/13 06:07:41;;;;;;;3.53;2.58;;;16.90;74.70;;;19.73;49.08;97228.47;5028436;28;20255;-55
2022/09/13 06:10:10;;;;;;;4.72;3.25;;;16.80;74.70;;;19.74;49.11;97226.63;5025935;28;20055;-57
2022/09/13 06:12:38;;;;;;;3.42;2.70;;;16.90;74.80;;;19.75;49.04;97231.78;5027632;28;20052;-56
2022/09/13 06:15:08;;;;;;;5.28;2.15;;;16.80;74.70;;;19.76;49.20;97227.22;5027548;28;20056;-50
2022/09/13 06:17:35;;;;;;;5.20;2.38;;;16.90;74.90;;;19.78;49.05;97230.50;5028131;28;20052;-55
2022/09/13 06:20:04;;;;;;;3.30;2.50;;;16.80;74.60;;;19.78;48.96;97217.81;5028005;28;20056;-52
2022/09/13 06:22:34;;;;;;;4.47;3.00;;;16.90;74.60;;;19.81;49.03;97228.19;5026921;28;20321;-50
2022/09/13 06:25:02;;;;;;;3.65;2.67;;;16.90;74.60;;;19.81;48.99;97224.63;5023883;28;20049;-54
2022/09/13 06:27:30;;;;;;;4.55;2.83;;;16.90;74.80;;;19.80;49.11;97221.13;5026162;28;20052;-54
2022/09/13 06:29:58;;;;;;;4.28;2.60;;;16.80;74.80;;;19.81;48.88;97217.38;5028221;28;20339;-52
2022/09/13 06:32:26;;;;;;;2.33;2.13;;;16.80;74.70;;;19.83;49.12;97214.41;5026971;28;20270;-52
2022/09/13 06:34:53;;;;;;;3.30;2.88;;;16.90;75.00;;;19.80;48.99;97220.28;5027789;28;20034;-53
2022/09/13 06:37:21;;;;;;;5.70;3.53;;;16.90;74.80;;;19.82;49.12;97221.69;5028018;28;20033;-52
2022/09/13 06:39:49;;;;;;;5.82;2.97;;;16.90;74.80;;;19.85;48.75;97220.41;5027289;28;20053;-51
2022/09/13 06:42:17;;;;;;;3.42;2.70;;;16.90;74.40;;;19.92;48.97;97228.44;5027268;28;20235;-53
2022/09/13 06:44:44;;;;;;;3.45;3.03;;;17.00;74.10;;;20.00;48.80;97218.09;5025801;28;20057;-54
2022/09/13 06:47:12;;;;;;;3.58;2.58;;;17.10;74.10;;;20.10;48.77;97209.41;5027521;28;20049;-50
2022/09/13 06:49:41;;;;;;;3.03;2.60;;;17.20;73.80;;;20.19;48.75;97210.72;5028066;28;20494;-54
2022/09/13 06:52:09;;;;;;;4.05;2.70;;;17.30;73.70;;;20.29;48.63;97210.16;5027407;28;20048;-53
2022/09/13 06:54:36;;;;;;;3.75;2.50;;;17.50;73.60;;;20.39;48.80;97204.97;5027167;28;20092;-54
2022/09/13 06:57:04;;;;;;;3.50;2.33;;;17.60;73.60;;;20.49;48.56;97203.56;5027808;28;20046;-54
2022/09/13 06:59:33;;;;;;;4.30;2.42;;;17.70;73.30;;;20.55;48.59;97194.53;5027172;28;20067;-52
2022/09/13 07:02:01;;;;;;;4.20;2.60;;;17.70;73.50;;;20.60;48.79;97194.66;5027309;28;20249;-54
2022/09/13 07:04:30;;;;;;;3.40;2.50;;;17.80;73.40;;;20.64;48.33;97196.66;5025754;28;20057;-54
2022/09/13 07:06:58;;;;;;;3.33;3.03;;;17.90;73.00;;;20.70;48.28;97194.88;5026793;28;20362;-59
2022/09/13 07:09:26;;;;;;;3.03;2.58;;;18.00;72.30;;;20.80;48.03;97197.84;5026294;28;20230;-59
2022/09/13 07:11:55;;;;;;;2.80;2.30;;;18.10;72.00;;;20.85;47.99;97195.22;5027129;28;20049;-58
2022/09/13 07:14:26;;;;;;;4.60;2.17;;;18.10;71.50;;;20.92;48.36;97189.69;5027833;28;20049;-59
2022/09/13 07:16:54;;;;;;;6.70;2.78;;;18.20;71.30;;;20.96;48.06;97182.75;5026090;28;20213;-59
2022/09/13 07:19:27;;;;;;;4.05;2.85;;;18.30;71.00;;;20.99;47.76;97190.38;5025871;28;20049;-59
2022/09/13 07:21:56;;;;;;;2.65;2.45;;;18.40;70.00;;;21.01;47.61;97187.44;5027044;28;20049;-60
2022/09/13 07:24:26;;;;;;;3.50;2.25;;;18.40;70.10;;;21.02;47.78;97189.09;5026256;28;20045;-58
2022/09/13 07:27:08;;;;;;;4.65;2.47;;;18.40;70.20;;;21.08;48.07;97198.13;5037006;28;20060;-57
2022/09/13 07:29:35;;;;;;;4.10;3.35;;;18.50;70.10;;;21.11;47.79;97197.63;5029786;28;20091;-58
2022/09/13 07:32:03;;;;;;;5.60;3.08;;;18.60;69.90;;;21.20;47.56;97199.72;5026694;28;20083;-59
2022/09/13 07:34:31;;;;;;;5.18;2.60;;;18.60;69.80;;;21.31;47.30;97192.66;5025518;28;20060;-58
2022/09/13 07:36:59;;;;;;;12.55;3.38;;;18.70;69.60;;;21.43;47.54;97200.72;5024282;28;20044;-59
2022/09/13 07:39:27;;;;;;;7.70;3.05;;;18.90;69.40;;;21.55;47.28;97206.94;5021608;28;20256;-59
2022/09/13 07:41:54;;;;;;;5.38;3.20;;;19.00;69.60;;;21.68;47.49;97205.81;5007981;28;20058;-59
2022/09/13 07:44:22;;;;;;;4.35;2.50;;;19.10;69.30;;;21.78;47.14;97210.59;5006479;28;20606;-52
2022/09/13 07:46:51;;;;;;;6.95;4.57;;;19.10;68.90;;;21.88;47.32;97205.34;5006276;28;20112;-54
2022/09/13 07:49:19;;;;;;;4.00;2.60;;;19.20;68.80;;;21.97;46.31;97209.31;5004274;28;20057;-52
2022/09/13 07:51:50;;;;;;;3.15;2.13;;;19.40;67.70;;;22.06;46.55;97204.28;5005635;28;20057;-55
2022/09/13 07:54:19;;;;;;;4.05;2.00;;;19.50;67.20;;;22.12;46.25;97197.91;5005560;28;20272;-55
2022/09/13 07:56:49;;;;;;;2.78;2.42;;;19.60;66.40;;;22.18;45.93;97205.06;5008161;28;20232;-58
2022/09/13 07:59:18;;;;;;;3.90;2.20;;;19.60;66.30;;;22.26;45.94;97195.72;5005005;28;20045;-54
2022/09/13 08:01:49;;;;;;;4.32;2.22;;;19.70;65.80;;;22.36;45.27;97195.06;5004592;28;20060;-55
2022/09/13 08:04:22;;;;;;;3.40;2.50;;;19.80;65.20;;;22.44;45.14;97191.94;5004525;28;20058;-55
2022/09/13 08:06:50;;;;;;;7.93;2.50;;;19.90;64.60;;;22.50;45.58;97180.06;5007277;28;20247;-53
2022/09/13 08:09:18;;;;;;;3.42;2.42;;;20.00;64.80;;;22.58;45.41;97173.41;5005923;28;20056;-54
2022/09/13 08:11:51;;;;;;;3.05;2.15;;;20.10;64.80;;;22.63;45.39;97168.06;5005817;28;20046;-55
2022/09/13 08:14:21;;;;;;;;;;;20.10;64.70;;;22.84;45.30;97174.59;5006518;28;20245;-55
2022/09/13 08:16:48;;;;;;;6.35;2.50;;;20.20;63.60;;;22.85;44.90;97173.50;5006432;28;19918;-55
2022/09/13 08:19:18;;;;;;;3.97;2.42;;;20.20;64.70;;;22.85;45.15;97169.97;5005292;28;20245;-55
2022/09/13 08:21:46;;;;;;;4.93;2.55;;;20.30;64.30;;;22.87;44.68;97182.22;5005736;28;20056;-54
2022/09/13 08:24:17;;;;;;;3.80;2.60;;;20.30;63.40;;;22.95;44.63;97191.81;5005280;28;20050;-50
2022/09/13 08:26:46;;;;;;;5.30;2.75;;;20.50;63.30;;;23.05;44.59;97191.16;5007666;28;20060;-54
2022/09/13 08:29:15;;;;;;;4.07;2.40;;;20.50;63.00;;;23.12;44.57;97180.94;5006042;28;20049;-54
2022/09/13 08:31:43;;;;;;;2.70;2.20;;;20.60;62.60;;;23.22;44.24;97169.38;5005510;28;20057;-54
2022/09/13 08:34:14;;;;;;;4.43;2.45;;;20.70;62.50;;;23.29;44.05;97183.59;5004735;28;20366;-53
2022/09/13 08:36:42;;;;;;;3.65;1.90;;;20.80;62.10;;;23.37;43.96;97189.38;5006290;28;20057;-55
2022/09/13 08:39:12;;;;;;;3.60;2.25;;;20.90;61.90;;;23.44;43.76;97186.47;5006282;28;20400;-55
2022/09/13 08:41:51;;;;;;;3.47;2.45;;;20.90;61.50;;;23.49;43.42;97175.63;5006208;28;20351;-53
2022/09/13 08:44:46;;;;;;;2.53;2.20;;;20.90;62.00;;;23.56;43.69;97181.69;5005540;28;20076;-55
2022/09/13 08:47:48;;;;;;;4.28;2.28;;;21.00;59.00;;;23.58;43.31;97184.16;5005707;28;20370;-57
2022/09/13 08:50:43;;;;;;;4.78;2.47;;;21.00;59.20;;;23.63;43.42;97186.91;5009517;28;20052;-56
2022/09/13 08:53:31;;;;;;;5.95;2.53;;;21.10;60.60;;;23.72;43.92;97182.66;5009109;28;20237;-57
2022/09/13 08:56:19;;;;;;;5.78;3.13;;;21.10;60.40;;;23.82;44.11;97175.72;5008284;28;20382;-57
2022/09/13 08:59:07;;;;;;;3.05;2.33;;;21.30;62.10;;;23.91;43.97;97183.16;5010065;28;20057;-55
2022/09/13 09:01:38;;;;;;;4.32;3.25;;;21.40;61.40;;;23.95;43.98;97178.03;5011218;28;20233;-50
2022/09/13 09:04:24;;;;;;;9.68;3.10;;;21.40;61.80;;;24.00;44.00;97171.78;5008953;28;20054;-54
2022/09/13 09:07:10;;;;;;;3.95;2.65;;;21.50;61.30;;;24.08;44.16;97165.88;5009183;28;20276;-56
2022/09/13 09:10:07;;;;;;;5.38;2.65;;;21.60;62.10;;;24.16;43.97;97170.84;5009529;28;20050;-54
2022/09/13 09:12:44;;;;;;;3.03;2.47;;;21.70;61.80;;;24.28;43.96;97176.91;4992845;28;20057;-55
2022/09/13 09:15:20;;;;;;;5.85;2.50;;;21.70;62.10;;;24.35;43.74;97179.44;5008023;28;20046;-55
2022/09/13 09:17:54;;;;;;;6.20;3.55;;;21.80;61.70;;;24.40;44.11;97187.63;5010685;28;20056;-55
2022/09/13 09:20:32;;;;;;;12.43;4.03;;;21.90;62.50;;;24.46;44.27;97197.44;5008961;28;20052;-55
2022/09/13 09:23:07;;;;;;;7.65;3.45;;;21.90;62.50;;;24.50;44.04;97195.84;5007859;28;20046;-55
2022/09/13 09:25:34;;;;;;;8.80;3.67;;;22.00;62.80;;;24.54;44.29;97197.00;5005226;28;20060;-55
2022/09/13 09:28:15;;;;;;;5.82;3.58;;;22.00;62.70;;;24.59;44.26;97185.31;5009948;28;20420;-54
2022/09/13 09:30:59;;;;;;;4.57;3.10;;;22.10;63.50;;;24.59;44.12;97188.03;5008238;28;20060;-54
2022/09/13 09:34:06;;;;;;;9.52;3.28;;;22.00;62.70;;;24.60;44.75;97178.78;5008634;28;20256;-55
2022/09/13 09:36:45;;;;;;;5.82;3.42;;;22.00;62.80;;;24.59;44.51;97177.16;5009257;28;20293;-56
2022/09/13 09:39:15;;;;;;;5.13;3.10;;;22.10;63.10;;;24.58;44.46;97174.69;5023708;28;20056;-55
2022/09/13 09:41:44;;;;;;;5.82;2.85;;;22.00;63.00;;;24.57;44.22;97173.88;5007600;28;20061;-54
2022/09/13 09:44:32;;;;;;;4.40;3.50;;;22.00;62.90;;;24.60;44.20;97197.84;5006813;28;20060;-52
2022/09/13 09:47:04;;;;;;;6.72;3.75;;;22.10;62.00;;;24.63;43.82;97191.06;5007291;28;20050;-50
2022/09/13 09:53:18;;;;;;;5.43;3.20;;;22.00;62.00;;;24.70;43.87;97205.28;5008770;28;20247;-53
2022/09/13 09:56:29;;;;;;;4.63;3.08;;;22.10;61.60;;;24.77;43.64;97201.19;5009601;28;20356;-52
2022/09/13 09:58:56;;;;;;;4.85;3.00;;;22.20;61.50;;;24.85;43.39;97207.25;5006239;28;20058;-56
2022/09/13 10:01:26;;;;;;;5.93;3.30;;;22.20;61.20;;;24.85;43.10;97202.59;5004691;28;20084;-54
2022/09/13 10:04:21;;;;;;;4.93;3.38;;;22.30;60.90;;;24.88;43.13;97204.00;5009020;28;20060;-54
2022/09/13 10:07:06;;;;;;;4.80;3.08;;;22.30;59.20;;;24.87;42.60;97205.06;5008494;28;20052;-54
2022/09/13 10:09:38;;;;;;;5.68;3.63;;;22.20;59.80;;;24.88;42.73;97199.38;4993686;28;20061;-52
2022/09/13 10:12:06;;;;;;;8.07;3.58;;;22.30;59.70;;;24.89;42.89;97194.75;5007386;28;20054;-55
2022/09/13 10:14:46;;;;;;;6.65;2.70;;;22.30;59.70;;;24.92;42.55;97195.03;5007213;28;20058;-52
2022/09/13 10:17:20;;;;;;;10.30;3.50;;;22.30;58.70;;;24.98;42.34;97198.59;5007341;28;20056;-52
2022/09/13 10:20:01;;;;;;;12.23;2.85;;;22.40;58.80;;;25.02;42.27;97188.00;5009001;28;20235;-55
2022/09/13 10:22:32;;;;;;;3.42;2.40;;;22.40;58.60;;;25.04;42.07;97181.19;5007811;28;20056;-50
2022/09/13 10:25:28;;;;;;;5.22;2.47;;;22.50;58.90;;;25.10;42.36;97184.75;5006812;28;20060;-56
2022/09/13 10:27:59;;;;;;;3.30;2.67;;;22.60;57.70;;;25.18;41.92;97183.44;5008361;28;20052;-53
2022/09/13 10:30:46;;;;;;;4.53;2.35;;;22.60;58.30;;;25.26;42.03;97186.50;5005537;28;20058;-52
2022/09/13 10:33:38;;;;;;;5.65;2.70;;;22.70;57.40;;;25.38;41.64;97191.72;5006410;28;20236;-55
2022/09/13 10:36:23;;;;;;;4.35;2.42;;;22.80;56.60;;;25.49;41.50;97187.09;5007087;28;20053;-52
2022/09/13 10:39:18;;;;;;;4.70;2.22;;;23.00;56.10;;;25.66;41.19;97186.88;5007156;28;20050;-57
2022/09/13 10:42:01;;;;;;;3.88;2.40;;;23.20;56.10;;;25.75;40.56;97185.28;5007336;28;20054;-53
2022/09/13 10:45:05;;;;;;;3.78;2.28;;;23.30;54.60;;;25.84;40.56;97171.91;5007539;28;20048;-55
2022/09/13 10:48:10;;;;;;;4.25;2.67;;;23.40;53.10;;;25.92;39.89;97172.22;4995829;28;20066;-57
2022/09/13 10:50:38;;;;;;;5.35;3.38;;;23.40;52.00;;;26.00;39.19;97159.97;5005819;28;20070;-56
2022/09/13 10:53:41;;;;;;;3.30;2.92;;;23.50;54.30;;;25.97;39.74;97163.22;5006986;28;20332;-56
2022/09/13 10:56:25;;;;;;;3.63;2.67;;;23.50;51.90;;;26.09;38.06;97162.94;5006680;28;20062;-57
2022/09/13 10:59:23;;;;;;;11.35;8.65;;;23.60;49.30;;;26.15;37.84;97158.31;5006212;28;20042;-55
2022/09/13 11:03:01;;;;;;;16.42;11.82;;;23.70;49.50;;;26.28;38.28;97165.94;5005678;28;20247;-55